createdAt,value
2023-03-31T00:01:42.749Z,2.85
2023-03-31T00:04:13.610Z,2.70
2023-03-31T00:06:44.395Z,2.66
2023-03-31T00:09:13.060Z,2.89
2023-03-31T00:11:40.478Z,2.98
2023-03-31T00:14:08.245Z,2.92
2023-03-31T00:16:35.537Z,2.95
2023-03-31T00:19:02.202Z,2.83
2023-03-31T00:21:37.091Z,2.85
2023-03-31T00:24:04.912Z,2.87
2023-03-31T00:26:31.981Z,2.68
2023-03-31T00:28:59.760Z,2.71
2023-03-31T00:31:27.734Z,2.80
2023-03-31T00:33:54.467Z,2.80
2023-03-31T00:36:21.767Z,2.81
2023-03-31T00:38:48.727Z,2.82
2023-03-31T00:41:15.933Z,2.83
2023-03-31T00:44:01.371Z,2.82
2023-03-31T00:46:30.942Z,2.83
2023-03-31T00:48:58.034Z,2.57
2023-03-31T00:51:28.462Z,2.25
2023-03-31T00:53:59.861Z,2.43
2023-03-31T00:56:28.964Z,2.50
2023-03-31T00:58:58.090Z,2.49
2023-03-31T01:01:24.994Z,2.50
2023-03-31T01:03:52.545Z,2.51
2023-03-31T01:06:23.924Z,2.51
2023-03-31T01:08:51.548Z,2.34
2023-03-31T01:11:23.396Z,2.32
2023-03-31T01:13:51.858Z,2.31
2023-03-31T01:16:18.710Z,2.23
2023-03-31T01:18:49.922Z,2.23
2023-03-31T01:21:35.449Z,2.20
2023-03-31T01:24:05.125Z,2.10
2023-03-31T01:26:50.349Z,1.85
2023-03-31T01:29:32.357Z,1.87
2023-03-31T01:32:05.079Z,1.99
2023-03-31T01:34:50.768Z,2.07
2023-03-31T01:37:17.443Z,2.12
2023-03-31T01:39:56.402Z,2.15
2023-03-31T01:42:35.365Z,1.99
2023-03-31T01:45:31.378Z,1.71
2023-03-31T01:48:03.245Z,1.79
2023-03-31T01:50:39.462Z,1.67
2023-03-31T01:53:16.603Z,1.73
2023-03-31T01:55:48.181Z,1.78
2023-03-31T01:58:24.377Z,1.85
2023-03-31T02:01:03.788Z,1.90
2023-03-31T02:03:34.825Z,1.93
2023-03-31T02:06:06.066Z,1.89
2023-03-31T02:08:36.328Z,1.79
2023-03-31T02:11:03.143Z,1.86
2023-03-31T02:13:31.006Z,1.94
2023-03-31T02:16:03.017Z,2.00
2023-03-31T02:18:33.242Z,2.03
2023-03-31T02:21:01.082Z,2.05
2023-03-31T02:23:31.767Z,1.89
2023-03-31T02:26:16.551Z,1.79
2023-03-31T02:28:43.300Z,1.76
2023-03-31T02:31:09.970Z,1.72
2023-03-31T02:33:36.970Z,1.77
2023-03-31T02:36:04.151Z,1.75
2023-03-31T02:38:34.012Z,1.76
2023-03-31T02:41:00.783Z,1.69
2023-03-31T02:43:27.453Z,1.72
2023-03-31T02:45:54.123Z,1.70
2023-03-31T02:48:29.561Z,1.69
2023-03-31T02:51:07.631Z,1.66
2023-03-31T02:53:53.209Z,1.67
2023-03-31T02:56:19.756Z,1.51
2023-03-31T02:58:49.376Z,1.33
2023-03-31T03:01:25.796Z,1.48
2023-03-31T03:04:04.273Z,1.60
2023-03-31T03:06:42.293Z,1.65
2023-03-31T03:09:17.133Z,1.67
2023-03-31T03:11:51.946Z,1.48
2023-03-31T03:14:22.056Z,1.55
2023-03-31T03:16:52.227Z,1.56
2023-03-31T03:19:22.435Z,1.48
2023-03-31T03:21:49.151Z,1.49
2023-03-31T03:24:17.305Z,1.57
2023-03-31T03:26:44.959Z,1.57
2023-03-31T03:29:14.906Z,1.69
2023-03-31T03:31:42.370Z,1.78
2023-03-31T03:34:11.794Z,1.88
2023-03-31T03:36:38.814Z,1.96
2023-03-31T03:39:07.761Z,2.00
2023-03-31T03:41:34.468Z,2.09
2023-03-31T03:44:01.262Z,2.00
2023-03-31T03:46:28.046Z,2.05
2023-03-31T03:48:54.797Z,2.11
2023-03-31T03:51:21.484Z,2.15
2023-03-31T03:53:47.972Z,2.15
2023-03-31T03:56:14.528Z,2.17
2023-03-31T03:58:41.144Z,2.19
2023-03-31T04:01:07.787Z,2.21
2023-03-31T04:03:34.311Z,1.99
2023-03-31T04:06:00.898Z,2.08
2023-03-31T04:08:27.538Z,2.17
2023-03-31T04:10:54.365Z,2.01
2023-03-31T04:13:21.253Z,2.18
2023-03-31T04:15:47.872Z,2.27
2023-03-31T04:18:23.172Z,2.35
2023-03-31T04:21:05.410Z,2.36
2023-03-31T04:23:42.687Z,2.30
2023-03-31T04:26:10.139Z,2.39
2023-03-31T04:28:39.494Z,2.20
2023-03-31T04:31:09.474Z,2.15
2023-03-31T04:33:39.309Z,2.29
2023-03-31T04:36:18.001Z,2.35
2023-03-31T04:38:46.868Z,2.37
2023-03-31T04:41:17.093Z,2.50
2023-03-31T04:43:43.795Z,2.59
2023-03-31T04:46:10.585Z,2.66
2023-03-31T04:48:37.427Z,2.71
2023-03-31T04:51:04.091Z,2.59
2023-03-31T04:53:30.682Z,2.54
2023-03-31T04:55:57.168Z,2.55
2023-03-31T04:58:23.821Z,2.48
2023-03-31T05:00:50.336Z,2.56
2023-03-31T05:03:16.960Z,2.62
2023-03-31T05:05:43.709Z,2.53
2023-03-31T05:08:10.404Z,2.75
2023-03-31T05:10:36.992Z,2.83
2023-03-31T05:13:03.630Z,2.97
2023-03-31T05:15:30.182Z,2.81
2023-03-31T05:17:57.800Z,3.10
2023-03-31T05:20:24.477Z,3.32
2023-03-31T05:22:51.205Z,3.45
2023-03-31T05:25:20.384Z,3.60
2023-03-31T05:27:51.065Z,3.56
2023-03-31T05:30:18.126Z,3.85
2023-03-31T05:32:44.672Z,3.92
2023-03-31T05:35:11.285Z,3.99
2023-03-31T05:37:37.804Z,3.97
2023-03-31T05:40:09.399Z,3.66
2023-03-31T05:42:36.317Z,3.51
2023-03-31T05:45:02.918Z,3.58
2023-03-31T05:47:29.492Z,4.18
2023-03-31T05:49:56.045Z,4.43
2023-03-31T05:52:22.540Z,4.62
2023-03-31T05:54:49.055Z,4.46
2023-03-31T05:57:15.675Z,4.20
2023-03-31T05:59:42.639Z,4.49
2023-03-31T06:02:12.623Z,4.54
2023-03-31T06:04:39.925Z,4.58
2023-03-31T06:07:06.539Z,4.73
2023-03-31T06:09:33.427Z,4.55
2023-03-31T06:12:00.558Z,4.53
2023-03-31T06:14:27.485Z,4.90
2023-03-31T06:16:56.739Z,5.19
2023-03-31T06:19:24.949Z,5.47
2023-03-31T06:21:52.618Z,6.03
2023-03-31T06:24:19.325Z,6.29
2023-03-31T06:26:45.867Z,6.50
2023-03-31T06:29:12.474Z,7.38
2023-03-31T06:31:39.131Z,8.99
2023-03-31T06:34:06.704Z,9.18
2023-03-31T06:36:33.253Z,10.41
2023-03-31T06:38:59.837Z,12.57
2023-03-31T06:41:26.586Z,14.32
2023-03-31T06:43:59.067Z,15.72
2023-03-31T06:46:25.754Z,16.71
2023-03-31T06:48:52.432Z,16.98
2023-03-31T06:51:19.109Z,18.27
2023-03-31T06:53:45.754Z,18.39
2023-03-31T06:56:12.321Z,19.22
2023-03-31T06:58:39.575Z,20.49
2023-03-31T07:01:07.207Z,19.58
2023-03-31T07:03:34.244Z,21.43
2023-03-31T07:06:01.146Z,22.64
2023-03-31T07:08:28.381Z,21.89
2023-03-31T07:10:57.739Z,20.06
2023-03-31T07:13:25.411Z,21.68
2023-03-31T07:15:52.234Z,22.81
2023-03-31T07:18:19.283Z,23.52
2023-03-31T07:20:50.687Z,23.19
2023-03-31T07:23:17.626Z,22.45
2023-03-31T07:25:44.330Z,21.32
2023-03-31T07:28:11.295Z,20.48
2023-03-31T07:30:37.901Z,17.81
2023-03-31T07:33:05.596Z,18.70
2023-03-31T07:35:32.273Z,19.22
2023-03-31T07:37:59.912Z,18.59
2023-03-31T07:40:28.267Z,18.78
2023-03-31T07:42:54.937Z,18.57
2023-03-31T07:45:22.407Z,19.53
2023-03-31T07:47:49.022Z,18.67
2023-03-31T07:50:16.556Z,18.86
2023-03-31T07:52:45.457Z,18.55
2023-03-31T07:55:13.556Z,18.75
2023-03-31T07:57:41.499Z,19.37
2023-03-31T08:00:11.074Z,19.48
2023-03-31T08:02:38.023Z,19.46
2023-03-31T08:05:06.296Z,20.15
2023-03-31T08:07:36.851Z,19.26
2023-03-31T08:10:07.873Z,19.99
2023-03-31T08:12:34.543Z,20.99
2023-03-31T08:15:01.529Z,20.41
2023-03-31T08:17:28.239Z,20.93
2023-03-31T08:19:54.812Z,21.61
2023-03-31T08:22:23.438Z,19.88
2023-03-31T08:24:50.008Z,20.05
2023-03-31T08:27:17.086Z,20.66
2023-03-31T08:29:44.325Z,20.53
2023-03-31T08:32:11.061Z,21.20
2023-03-31T08:34:38.152Z,21.49
2023-03-31T08:37:06.008Z,20.55
2023-03-31T08:39:34.242Z,20.77
2023-03-31T08:42:02.696Z,22.05
2023-03-31T08:44:38.535Z,22.79
2023-03-31T08:47:07.722Z,23.28
2023-03-31T08:49:45.994Z,25.10
2023-03-31T08:52:16.193Z,24.03
2023-03-31T08:54:44.650Z,24.59
2023-03-31T08:57:31.790Z,24.32
2023-03-31T09:00:06.943Z,25.93
2023-03-31T09:02:49.544Z,25.61
2023-03-31T09:05:39.231Z,23.93
2023-03-31T09:08:16.864Z,24.20
2023-03-31T09:10:49.709Z,23.56
2023-03-31T09:13:31.557Z,23.34
2023-03-31T09:16:05.912Z,22.73
2023-03-31T09:18:36.906Z,22.41
2023-03-31T09:21:15.922Z,23.22
2023-03-31T09:23:53.958Z,22.41
2023-03-31T09:26:30.956Z,20.87
2023-03-31T09:28:59.971Z,20.17
2023-03-31T09:31:27.240Z,20.55
2023-03-31T09:33:58.905Z,19.21
2023-03-31T09:36:25.930Z,18.30
2023-03-31T09:38:52.701Z,18.45
2023-03-31T09:41:19.813Z,17.94
2023-03-31T09:43:47.464Z,17.41
2023-03-31T09:46:17.098Z,16.62
2023-03-31T09:48:50.792Z,16.86
2023-03-31T09:51:19.978Z,16.95
2023-03-31T09:53:46.512Z,17.66
2023-03-31T09:56:14.356Z,16.92
2023-03-31T09:58:43.745Z,16.61
2023-03-31T10:01:11.632Z,16.73
2023-03-31T10:03:52.066Z,16.58
2023-03-31T10:06:19.471Z,16.25
2023-03-31T10:08:51.981Z,17.21
2023-03-31T10:11:18.597Z,17.33
2023-03-31T10:13:58.843Z,17.67
2023-03-31T10:16:33.709Z,17.59
2023-03-31T10:19:12.720Z,16.28
2023-03-31T10:21:39.383Z,16.98
2023-03-31T10:24:10.672Z,17.70
2023-03-31T10:26:37.657Z,16.68
2023-03-31T10:29:10.637Z,16.63
2023-03-31T10:31:38.094Z,16.39
2023-03-31T10:34:06.413Z,16.87
2023-03-31T10:36:33.293Z,16.51
2023-03-31T10:38:59.936Z,16.15
2023-03-31T10:41:28.347Z,15.85
2023-03-31T10:43:56.144Z,16.20
2023-03-31T10:46:39.845Z,15.93
2023-03-31T10:49:21.474Z,15.41
2023-03-31T10:51:55.484Z,14.92
2023-03-31T10:54:22.020Z,15.47
2023-03-31T10:56:56.694Z,15.73
2023-03-31T10:59:23.282Z,16.29
2023-03-31T11:02:00.284Z,16.21
2023-03-31T11:04:44.751Z,16.35
2023-03-31T11:07:29.991Z,16.47
2023-03-31T11:09:59.505Z,16.82
2023-03-31T11:12:32.083Z,16.92
2023-03-31T11:14:58.682Z,17.46
2023-03-31T11:17:34.722Z,16.67
2023-03-31T11:20:22.121Z,16.40
2023-03-31T11:22:57.509Z,16.21
2023-03-31T11:25:30.699Z,16.43
2023-03-31T11:28:27.373Z,17.03
2023-03-31T11:31:12.480Z,16.99
2023-03-31T11:33:38.968Z,17.22
2023-03-31T11:36:08.403Z,17.03
2023-03-31T11:38:41.263Z,17.33
2023-03-31T11:41:14.137Z,17.03
2023-03-31T11:43:44.836Z,16.91
2023-03-31T11:46:20.563Z,17.27
2023-03-31T11:48:59.815Z,16.48
2023-03-31T11:51:26.338Z,16.86
2023-03-31T11:53:53.791Z,16.67
2023-03-31T11:56:22.820Z,16.70
2023-03-31T11:58:56.179Z,16.89
2023-03-31T12:01:29.609Z,16.49
2023-03-31T12:04:02.937Z,16.75
2023-03-31T12:06:32.150Z,16.73
2023-03-31T12:09:13.171Z,17.24
2023-03-31T12:11:56.260Z,17.16
2023-03-31T12:14:27.397Z,16.82
2023-03-31T12:17:26.771Z,16.61
2023-03-31T12:19:56.736Z,16.42
2023-03-31T12:22:29.288Z,16.70
2023-03-31T12:24:56.114Z,17.11
2023-03-31T12:27:22.615Z,17.51
2023-03-31T12:29:54.216Z,17.75
2023-03-31T12:32:27.809Z,18.26
2023-03-31T12:35:06.539Z,18.58
2023-03-31T12:37:33.338Z,18.40
2023-03-31T12:40:04.433Z,18.47
2023-03-31T12:42:41.752Z,17.31
2023-03-31T12:45:14.266Z,16.89
2023-03-31T12:48:02.405Z,16.76
2023-03-31T12:50:35.109Z,16.64
2023-03-31T12:53:01.621Z,16.33
2023-03-31T12:55:29.025Z,16.20
2023-03-31T12:58:14.268Z,15.98
2023-03-31T13:01:01.413Z,15.56
2023-03-31T13:03:34.129Z,15.53
2023-03-31T13:06:01.469Z,15.64
2023-03-31T13:08:46.743Z,15.66
2023-03-31T13:11:13.309Z,15.60
2023-03-31T13:14:00.449Z,15.78
2023-03-31T13:16:27.612Z,15.67
2023-03-31T13:18:54.812Z,15.66
2023-03-31T13:21:21.927Z,15.73
2023-03-31T13:23:48.893Z,15.78
2023-03-31T13:26:33.759Z,15.67
2023-03-31T13:29:29.966Z,15.36
2023-03-31T13:32:02.406Z,15.21
2023-03-31T13:34:49.787Z,15.32
2023-03-31T13:37:25.650Z,15.13
2023-03-31T13:40:01.157Z,14.99
2023-03-31T13:42:30.898Z,14.82
2023-03-31T13:45:16.228Z,14.60
2023-03-31T13:47:58.330Z,14.21
2023-03-31T13:50:24.821Z,14.04
2023-03-31T13:52:54.166Z,14.24
2023-03-31T13:55:30.036Z,14.29
2023-03-31T13:58:24.852Z,14.39
2023-03-31T14:01:07.566Z,14.19
2023-03-31T14:03:34.238Z,14.45
2023-03-31T14:06:23.571Z,14.51
2023-03-31T14:09:01.629Z,14.42
2023-03-31T14:11:29.648Z,14.30
2023-03-31T14:14:16.150Z,14.32
2023-03-31T14:16:45.898Z,14.37
2023-03-31T14:21:53.789Z,14.39
2023-03-31T14:24:30.956Z,14.43
2023-03-31T14:27:18.610Z,14.42
2023-03-31T14:30:21.323Z,14.47
2023-03-31T14:32:55.009Z,14.54
2023-03-31T14:35:26.771Z,14.43
2023-03-31T14:37:54.629Z,14.31
2023-03-31T14:40:21.277Z,14.25
2023-03-31T14:42:50.828Z,14.21
2023-03-31T14:45:25.355Z,14.33
2023-03-31T14:47:56.200Z,14.20
2023-03-31T14:50:28.058Z,14.21
2023-03-31T14:52:54.598Z,14.32
2023-03-31T14:55:31.791Z,14.44
2023-03-31T14:58:08.021Z,14.60
2023-03-31T15:00:36.677Z,14.44
2023-03-31T15:03:05.788Z,14.53
2023-03-31T15:05:34.421Z,14.54
2023-03-31T15:08:22.228Z,14.63
2023-03-31T15:10:54.006Z,14.71
2023-03-31T15:13:32.012Z,14.80
2023-03-31T15:15:58.514Z,14.76
2023-03-31T15:18:26.310Z,14.71
2023-03-31T15:20:52.876Z,14.65
2023-03-31T15:23:27.762Z,14.66
2023-03-31T15:26:08.140Z,14.69
2023-03-31T15:28:39.670Z,14.70
2023-03-31T15:31:10.436Z,14.65
2023-03-31T15:36:29.323Z,14.54
2023-03-31T15:38:59.635Z,14.45
2023-03-31T15:41:29.304Z,14.33
2023-03-31T15:44:05.122Z,14.25
2023-03-31T15:46:43.624Z,14.21
2023-03-31T15:49:24.049Z,14.27
2023-03-31T15:51:51.636Z,14.23
2023-03-31T15:54:37.162Z,14.22
2023-03-31T15:57:05.103Z,14.17
2023-03-31T15:59:41.562Z,13.98
2023-03-31T16:02:16.432Z,13.88
2023-03-31T16:04:43.096Z,13.71
2023-03-31T16:07:15.726Z,13.59
2023-03-31T16:09:45.636Z,13.55
2023-03-31T16:12:24.674Z,13.12
2023-03-31T16:15:14.229Z,13.05
2023-03-31T16:17:46.533Z,12.92
2023-03-31T16:20:19.254Z,12.79
2023-03-31T16:22:47.836Z,12.63
2023-03-31T16:25:16.003Z,12.55
2023-03-31T16:27:45.114Z,12.43
2023-03-31T16:30:17.383Z,12.29
2023-03-31T16:33:04.263Z,12.17
2023-03-31T16:35:34.939Z,12.15
2023-03-31T16:38:04.234Z,11.98
2023-03-31T16:40:32.852Z,11.86
2023-03-31T16:43:12.006Z,11.86
2023-03-31T16:45:38.767Z,11.79
2023-03-31T16:48:15.552Z,11.69
2023-03-31T16:50:54.217Z,11.62
2023-03-31T16:53:22.599Z,11.58
2023-03-31T16:55:49.630Z,11.58
2023-03-31T16:58:16.669Z,11.54
2023-03-31T17:00:43.776Z,11.42
2023-03-31T17:03:10.532Z,11.37
2023-03-31T17:05:42.147Z,11.28
2023-03-31T17:08:10.317Z,11.22
2023-03-31T17:10:37.725Z,11.16
2023-03-31T17:13:04.308Z,11.12
2023-03-31T17:15:30.928Z,10.98
2023-03-31T17:17:59.025Z,10.94
2023-03-31T17:20:26.172Z,10.90
2023-03-31T17:22:53.281Z,10.48
2023-03-31T17:25:20.411Z,10.35
2023-03-31T17:27:46.956Z,10.30
2023-03-31T17:30:13.724Z,10.34
2023-03-31T17:32:40.316Z,10.29
2023-03-31T17:35:07.648Z,10.25
2023-03-31T17:37:34.787Z,10.18
2023-03-31T17:40:01.463Z,9.75
2023-03-31T17:42:27.971Z,9.92
2023-03-31T17:44:54.582Z,9.79
2023-03-31T17:47:21.093Z,9.72
2023-03-31T17:49:47.608Z,9.71
2023-03-31T17:52:14.294Z,9.65
2023-03-31T17:54:40.874Z,9.57
2023-03-31T17:57:07.800Z,9.40
2023-03-31T17:59:35.190Z,9.06
2023-03-31T18:02:02.685Z,9.08
2023-03-31T18:04:29.309Z,9.10
2023-03-31T18:06:56.510Z,9.10
2023-03-31T18:09:25.088Z,9.07
2023-03-31T18:11:51.971Z,8.81
2023-03-31T18:14:18.657Z,8.77
2023-03-31T18:16:45.923Z,8.48
2023-03-31T18:19:12.635Z,8.50
2023-03-31T18:21:39.258Z,8.52
2023-03-31T18:24:05.862Z,8.46
2023-03-31T18:26:32.511Z,8.25
2023-03-31T18:28:59.374Z,8.27
2023-03-31T18:31:27.356Z,7.98
2023-03-31T18:33:54.895Z,8.21
2023-03-31T18:36:22.948Z,8.22
2023-03-31T18:38:50.643Z,8.20
2023-03-31T18:41:17.818Z,8.17
2023-03-31T18:43:44.714Z,7.98
2023-03-31T18:46:11.900Z,7.89
2023-03-31T18:48:39.252Z,7.58
2023-03-31T18:51:05.808Z,7.58
2023-03-31T18:53:32.342Z,7.63
2023-03-31T18:55:59.111Z,7.63
2023-03-31T18:58:28.810Z,7.64
2023-03-31T19:00:56.054Z,7.66
2023-03-31T19:03:22.768Z,7.31
2023-03-31T19:05:49.857Z,7.26
2023-03-31T19:08:16.567Z,7.36
2023-03-31T19:10:43.675Z,7.39
2023-03-31T19:13:15.529Z,7.39
2023-03-31T19:15:42.162Z,7.40
2023-03-31T19:18:12.476Z,7.31
2023-03-31T19:20:39.013Z,7.21
2023-03-31T19:23:06.245Z,7.17
2023-03-31T19:25:32.824Z,7.13
2023-03-31T19:27:59.441Z,7.01
2023-03-31T19:30:26.069Z,7.00
2023-03-31T19:32:53.812Z,6.96
2023-03-31T19:35:20.953Z,6.85
2023-03-31T19:37:48.712Z,6.82
2023-03-31T19:40:15.441Z,6.82
2023-03-31T19:42:44.976Z,6.78
2023-03-31T19:45:11.776Z,6.50
2023-03-31T19:47:38.824Z,6.40
2023-03-31T19:50:07.474Z,6.28
2023-03-31T19:52:34.200Z,6.35
2023-03-31T19:55:00.767Z,6.37
2023-03-31T19:57:27.420Z,5.96
2023-03-31T19:59:53.954Z,6.01
2023-03-31T20:02:20.947Z,6.06
2023-03-31T20:04:47.901Z,5.95
2023-03-31T20:07:14.595Z,6.06
2023-03-31T20:09:42.091Z,6.08
2023-03-31T20:12:08.668Z,6.19
2023-03-31T20:14:35.416Z,6.23
2023-03-31T20:17:03.368Z,6.25
2023-03-31T20:19:29.948Z,6.11
2023-03-31T20:21:57.958Z,5.99
2023-03-31T20:24:24.842Z,6.06
2023-03-31T20:26:51.967Z,5.95
2023-03-31T20:29:18.671Z,5.77
2023-03-31T20:31:45.327Z,5.56
2023-03-31T20:34:16.799Z,5.63
2023-03-31T20:36:49.009Z,5.68
2023-03-31T20:39:16.281Z,5.75
2023-03-31T20:41:43.387Z,5.75
2023-03-31T20:44:13.473Z,5.31
2023-03-31T20:46:42.428Z,5.10
2023-03-31T20:49:09.910Z,5.32
2023-03-31T20:51:39.862Z,5.33
2023-03-31T20:54:07.268Z,5.41
2023-03-31T20:56:35.517Z,5.32
2023-03-31T20:59:02.145Z,5.32
2023-03-31T21:01:30.966Z,5.14
2023-03-31T21:04:01.352Z,5.05
2023-03-31T21:06:29.192Z,5.07
2023-03-31T21:08:57.310Z,4.81
2023-03-31T21:11:24.386Z,4.86
2023-03-31T21:13:51.276Z,5.02
2023-03-31T21:16:17.988Z,5.14
2023-03-31T21:18:44.612Z,5.21
2023-03-31T21:21:12.426Z,5.26
2023-03-31T21:23:39.340Z,5.29
2023-03-31T21:26:07.164Z,5.31
2023-03-31T21:28:34.917Z,5.25
2023-03-31T21:31:02.985Z,4.85
2023-03-31T21:33:30.552Z,4.87
2023-03-31T21:35:58.556Z,4.71
2023-03-31T21:38:25.837Z,4.73
2023-03-31T21:40:52.711Z,4.61
2023-03-31T21:43:19.841Z,4.75
2023-03-31T21:45:47.478Z,4.84
2023-03-31T21:48:14.394Z,4.79
2023-03-31T21:50:41.472Z,4.67
2023-03-31T21:53:09.321Z,4.73
2023-03-31T21:55:37.336Z,4.66
2023-03-31T21:58:04.692Z,4.58
2023-03-31T22:00:32.051Z,4.66
2023-03-31T22:03:16.080Z,4.71
2023-03-31T22:05:45.768Z,4.48
2023-03-31T22:08:12.484Z,4.43
2023-03-31T22:10:39.010Z,4.52
2023-03-31T22:13:05.594Z,4.52
2023-03-31T22:15:32.360Z,4.44
2023-03-31T22:17:59.104Z,4.15
2023-03-31T22:20:25.934Z,4.15
2023-03-31T22:22:52.494Z,4.09
2023-03-31T22:25:19.030Z,4.09
2023-03-31T22:27:45.537Z,4.16
2023-03-31T22:30:12.398Z,4.15
2023-03-31T22:32:38.973Z,4.11
2023-03-31T22:35:05.778Z,4.18
2023-03-31T22:37:32.367Z,4.24
2023-03-31T22:39:58.932Z,4.22
2023-03-31T22:42:34.746Z,4.26
2023-03-31T22:45:01.320Z,4.19
2023-03-31T22:47:28.038Z,4.06
2023-03-31T22:49:54.550Z,3.75
2023-03-31T22:52:21.137Z,3.80
2023-03-31T22:54:48.033Z,3.89
2023-03-31T22:57:14.732Z,3.92
2023-03-31T22:59:41.680Z,3.96
2023-03-31T23:02:08.202Z,3.92
2023-03-31T23:04:34.807Z,3.81
2023-03-31T23:07:04.830Z,3.84
2023-03-31T23:09:31.395Z,3.60
2023-03-31T23:11:57.987Z,3.70
2023-03-31T23:14:24.485Z,3.45
2023-03-31T23:16:51.854Z,3.30
2023-03-31T23:19:18.618Z,3.57
2023-03-31T23:21:45.340Z,3.68
2023-03-31T23:24:12.348Z,3.79
2023-03-31T23:26:38.893Z,3.82
2023-03-31T23:29:06.122Z,3.74
2023-03-31T23:31:33.224Z,3.42
2023-03-31T23:34:00.419Z,3.57
2023-03-31T23:36:27.982Z,3.53
2023-03-31T23:38:55.184Z,3.56
2023-03-31T23:41:23.012Z,3.64
2023-03-31T23:43:50.970Z,3.69
2023-03-31T23:46:17.827Z,3.67
2023-03-31T23:48:44.820Z,3.69
2023-03-31T23:51:11.337Z,3.62
2023-03-31T23:53:38.204Z,3.21
2023-03-31T23:56:06.663Z,3.12
2023-03-31T23:58:33.582Z,3.10
